Time;durP1;ratioP1;P1;durP2;ratioP2;P2;SDS_P1;SDS_P2;PMS_P1;PMS_P2;Temp;Humidity;BMP_temperature;BMP_pressure;BME280_temperature;BME280_humidity;BME280_pressure;Samples;Min_cycle;Max_cycle;Signal;HPM_P1;HPM_P2
2022/06/07 00:00:00;;;;;;;15.65;12.55;;;17.00;99.90;;;;;;5017974;28;20059;-78
2022/06/07 00:02:30;;;;;;;16.13;12.77;;;17.00;99.90;;;;;;5018047;28;20042;-78
2022/06/07 00:04:58;;;;;;;16.50;12.27;;;17.00;99.90;;;;;;5018552;28;20076;-78
2022/06/07 00:07:27;;;;;;;16.58;12.45;;;17.10;99.90;;;;;;5018334;28;20050;-78
2022/06/07 00:09:57;;;;;;;17.52;11.88;;;17.10;99.90;;;;;;5019185;28;20048;-78
2022/06/07 00:12:25;;;;;;;15.52;11.75;;;17.10;99.90;;;;;;5037386;28;20057;-76
2022/06/07 00:14:53;;;;;;;16.88;11.52;;;17.10;99.90;;;;;;5040017;28;20045;-78
2022/06/07 00:17:21;;;;;;;18.13;12.27;;;17.10;99.90;;;;;;5039267;28;20046;-78
2022/06/07 00:19:49;;;;;;;14.18;11.52;;;17.00;99.90;;;;;;5039448;28;20057;-78
2022/06/07 00:22:17;;;;;;;18.35;12.02;;;16.90;99.90;;;;;;5037270;28;20045;-78
2022/06/07 00:24:45;;;;;;;16.20;11.20;;;16.80;99.90;;;;;;5036288;28;20052;-78
2022/06/07 00:27:15;;;;;;;16.60;12.32;;;16.70;99.90;;;;;;5017867;28;20038;-78
2022/06/07 00:29:46;;;;;;;18.52;11.70;;;16.60;99.90;;;;;;5026004;28;20504;-78
2022/06/07 00:32:15;;;;;;;15.25;10.98;;;16.50;99.90;;;;;;5042571;28;20049;-77
2022/06/07 00:34:43;;;;;;;15.88;11.50;;;16.50;99.90;;;;;;5041382;28;20496;-78
2022/06/07 00:37:10;;;;;;;15.98;11.60;;;16.40;99.90;;;;;;5034840;28;20050;-78
2022/06/07 00:39:37;;;;;;;16.75;12.75;;;16.40;99.90;;;;;;5038179;28;20489;-78
2022/06/07 00:42:06;;;;;;;30.65;23.20;;;16.40;99.90;;;;;;5039655;28;20050;-78
2022/06/07 00:44:37;;;;;;;14.98;11.88;;;16.50;99.90;;;;;;5039835;28;20124;-78
2022/06/07 00:47:10;;;;;;;17.45;11.90;;;16.50;99.90;;;;;;5039749;28;20512;-78
2022/06/07 00:49:47;;;;;;;17.67;12.15;;;16.60;99.90;;;;;;5039576;28;20413;-78
2022/06/07 00:52:15;;;;;;;15.25;12.18;;;16.60;99.90;;;;;;5031619;28;20052;-78
2022/06/07 00:54:43;;;;;;;14.27;11.80;;;16.70;99.90;;;;;;5039095;28;20136;-78
2022/06/07 00:57:24;;;;;;;16.77;11.68;;;16.70;99.90;;;;;;5039905;28;20099;-78
2022/06/07 00:59:53;;;;;;;13.80;11.73;;;16.70;99.90;;;;;;5039725;28;20113;-78
2022/06/07 01:02:22;;;;;;;16.27;12.85;;;16.70;99.90;;;;;;5039001;28;20128;-78
2022/06/07 01:04:50;;;;;;;16.23;12.63;;;16.80;99.90;;;;;;5041157;28;20048;-78
2022/06/07 01:12:55;;;;;;;16.52;13.77;;;16.80;99.90;;;;;;5039215;28;20095;-78
2022/06/07 01:15:26;;;;;;;16.45;13.43;;;16.70;99.90;;;;;;5040347;28;20527;-78
2022/06/07 01:17:56;;;;;;;16.33;12.50;;;16.70;99.90;;;;;;5040497;28;20076;-78
2022/06/07 01:20:24;;;;;;;17.95;13.43;;;16.80;99.90;;;;;;5037887;28;20065;-78
2022/06/07 01:22:53;;;;;;;17.90;12.18;;;16.70;99.90;;;;;;5036708;28;20497;-78
2022/06/07 01:25:21;;;;;;;15.50;13.15;;;16.70;99.90;;;;;;5037991;28;20143;-78
2022/06/07 01:27:48;;;;;;;17.95;11.93;;;16.80;99.90;;;;;;5033468;28;20489;-78
2022/06/07 01:30:17;;;;;;;15.98;12.02;;;16.80;99.90;;;;;;5035771;28;20119;-79
2022/06/07 01:32:44;;;;;;;16.63;12.63;;;16.80;99.90;;;;;;5035936;28;20045;-78
2022/06/07 01:35:12;;;;;;;17.30;12.50;;;16.90;99.90;;;;;;5035250;28;20413;-78
2022/06/07 01:37:39;;;;;;;16.70;11.80;;;16.90;99.90;;;;;;5020887;28;20034;-78
2022/06/07 01:42:54;;;;;;;13.55;11.20;;;16.90;99.90;;;;;;5015447;28;20088;-79
2022/06/07 01:45:22;;;;;;;15.70;11.55;;;16.90;99.90;;;;;;5015264;28;20453;-78
2022/06/07 01:47:49;;;;;;;15.02;11.93;;;16.90;99.90;;;;;;5015129;28;20054;-78
2022/06/07 01:50:18;;;;;;;15.65;11.68;;;16.90;99.90;;;;;;5017513;28;20456;-78
2022/06/07 01:52:45;;;;;;;14.10;11.85;;;16.90;99.90;;;;;;5016541;28;20141;-78
2022/06/07 01:55:23;;;;;;;;;;;16.90;99.90;;;;;;5017994;28;21729;-78
2022/06/07 01:58:06;;;;;;;15.43;11.20;;;16.90;99.90;;;;;;5018005;28;20102;-79
2022/06/07 02:00:34;;;;;;;14.82;11.88;;;16.90;99.90;;;;;;5018468;28;20057;-79
2022/06/07 02:03:02;;;;;;;14.82;11.55;;;16.90;99.90;;;;;;5020793;28;20420;-78
2022/06/07 02:05:30;;;;;;;15.40;10.75;;;16.90;99.90;;;;;;5023144;28;20068;-78
2022/06/07 02:08:00;;;;;;;12.15;10.93;;;16.90;99.90;;;;;;5039954;28;20038;-79
2022/06/07 02:10:33;;;;;;;11.65;10.43;;;17.00;99.90;;;;;;5043484;28;20050;-78
2022/06/07 02:13:06;;;;;;;14.88;10.82;;;17.00;99.90;;;;;;5039195;28;20659;-78
2022/06/07 02:15:34;;;;;;;13.93;11.55;;;17.00;99.90;;;;;;5040389;28;20041;-78
2022/06/07 02:18:01;;;;;;;15.50;10.95;;;17.10;99.90;;;;;;5038564;28;20041;-78
2022/06/07 02:20:37;;;;;;;;;;;17.10;99.90;;;;;;5039627;28;20072;-77
2022/06/07 02:23:05;;;;;;;14.05;11.15;;;17.10;99.90;;;;;;5038675;28;19944;-78
2022/06/07 02:25:45;;;;;;;13.70;10.82;;;17.00;99.90;;;;;;5039378;28;20439;-78
2022/06/07 02:28:15;;;;;;;13.32;10.32;;;17.00;99.90;;;;;;5040318;28;20037;-78
2022/06/07 02:30:44;;;;;;;13.57;11.18;;;17.00;99.90;;;;;;5039989;28;20091;-78
2022/06/07 02:33:13;;;;;;;14.90;11.75;;;17.00;99.90;;;;;;5039648;28;20508;-78
2022/06/07 02:35:43;;;;;;;14.13;11.02;;;16.90;99.90;;;;;;5039450;28;20045;-78
2022/06/07 02:38:12;;;;;;;15.05;11.10;;;16.90;99.90;;;;;;5040252;28;20048;-78
2022/06/07 02:40:41;;;;;;;14.88;11.27;;;17.00;99.90;;;;;;5040531;28;20042;-78
2022/06/07 02:43:08;;;;;;;12.32;10.38;;;16.90;99.90;;;;;;5038333;28;20064;-78
2022/06/07 02:45:35;;;;;;;13.43;11.75;;;17.00;99.90;;;;;;5038527;28;20053;-78
2022/06/07 02:48:04;;;;;;;13.27;10.82;;;17.00;99.90;;;;;;5038003;28;20049;-78
2022/06/07 02:50:33;;;;;;;14.10;11.85;;;17.10;99.90;;;;;;5022171;28;20049;-78
2022/06/07 02:53:00;;;;;;;13.00;10.93;;;17.10;99.90;;;;;;5025078;28;20049;-78
2022/06/07 02:55:32;;;;;;;15.38;10.93;;;17.10;99.90;;;;;;5025794;28;20394;-77
2022/06/07 02:58:07;;;;;;;15.38;11.00;;;17.20;99.90;;;;;;5023090;28;20050;-77
2022/06/07 03:00:35;;;;;;;14.27;10.90;;;17.20;99.90;;;;;;5023503;28;20041;-78
2022/06/07 03:03:03;;;;;;;12.95;11.18;;;17.20;99.90;;;;;;5023801;28;20054;-78
2022/06/07 03:05:33;;;;;;;14.00;9.98;;;17.20;99.90;;;;;;5025505;28;20077;-78
2022/06/07 03:08:04;;;;;;;13.77;11.07;;;17.20;99.90;;;;;;5024483;28;20057;-78
2022/06/07 03:10:32;;;;;;;13.40;10.40;;;17.20;99.90;;;;;;5025472;28;20070;-77
2022/06/07 03:13:02;;;;;;;13.30;10.50;;;17.20;99.90;;;;;;5025087;28;20069;-78
2022/06/07 03:15:31;;;;;;;13.80;10.85;;;17.30;99.90;;;;;;5024471;28;20088;-78
2022/06/07 03:18:02;;;;;;;15.00;10.52;;;17.30;99.90;;;;;;5025076;28;20046;-77
2022/06/07 03:20:36;;;;;;;12.75;11.15;;;17.30;99.90;;;;;;5018694;28;20073;-78
2022/06/07 03:23:05;;;;;;;13.98;10.82;;;17.30;99.90;;;;;;5018064;28;20049;-78
2022/06/07 03:25:32;;;;;;;15.88;11.00;;;17.30;99.90;;;;;;5017077;28;20057;-78
2022/06/07 03:28:04;;;;;;;11.50;10.30;;;17.40;99.90;;;;;;5017305;28;20086;-79
2022/06/07 03:30:33;;;;;;;13.75;10.85;;;17.50;99.90;;;;;;5018368;28;20038;-78
2022/06/07 03:33:02;;;;;;;11.13;9.93;;;17.60;99.90;;;;;;5016502;28;20092;-78
2022/06/07 03:35:32;;;;;;;13.05;11.05;;;17.70;99.90;;;;;;5016805;28;20050;-78
2022/06/07 03:38:01;;;;;;;15.20;10.30;;;17.80;99.90;;;;;;5016899;28;20133;-78
2022/06/07 03:40:45;;;;;;;13.52;10.20;;;17.90;99.90;;;;;;5016683;28;20050;-78
2022/06/07 03:43:17;;;;;;;14.10;9.65;;;18.00;99.90;;;;;;5017224;28;20069;-78
2022/06/07 03:45:47;;;;;;;13.13;9.88;;;18.10;99.90;;;;;;5017858;28;20563;-78
2022/06/07 03:48:17;;;;;;;12.60;8.88;;;18.20;99.90;;;;;;5017560;28;20573;-78
2022/06/07 03:50:44;;;;;;;11.32;9.23;;;18.30;99.90;;;;;;5018556;28;20038;-78
2022/06/07 03:53:12;;;;;;;13.93;10.27;;;18.40;99.90;;;;;;5025114;28;20045;-78
2022/06/07 03:55:44;;;;;;;10.80;9.45;;;18.50;99.90;;;;;;5037785;28;20095;-79
2022/06/07 03:58:14;;;;;;;14.25;10.05;;;18.70;99.90;;;;;;5033955;28;20053;-78
2022/06/07 04:00:43;;;;;;;13.77;9.75;;;18.90;99.90;;;;;;5037135;28;20477;-78
2022/06/07 04:03:13;;;;;;;11.68;9.70;;;19.00;99.90;;;;;;5035150;28;20033;-78
2022/06/07 04:05:41;;;;;;;12.90;9.95;;;19.20;99.90;;;;;;5030757;28;20491;-78
2022/06/07 04:08:14;;;;;;;13.43;9.15;;;19.70;99.90;;;;;;5031564;28;20456;-79
2022/06/07 04:10:50;;;;;;;11.82;8.88;;;20.50;99.90;;;;;;5023602;28;20051;-79
2022/06/07 04:13:23;;;;;;;11.20;8.75;;;21.50;99.90;;;;;;5032056;28;20412;-78
2022/06/07 04:15:54;;;;;;;11.27;8.52;;;22.00;99.90;;;;;;5030101;28;20045;-78
2022/06/07 04:18:24;;;;;;;9.85;7.72;;;22.70;99.90;;;;;;5035000;28;20041;-78
2022/06/07 04:20:54;;;;;;;13.27;8.43;;;23.20;99.90;;;;;;5022855;28;20394;-78
2022/06/07 04:23:22;;;;;;;12.27;8.13;;;23.50;99.90;;;;;;5031939;28;20041;-78
2022/06/07 04:25:50;;;;;;;11.85;8.00;;;23.50;99.90;;;;;;5030150;28;20048;-78
2022/06/07 04:28:18;;;;;;;17.75;9.05;;;23.90;99.90;;;;;;5042014;28;20101;-77
2022/06/07 04:30:50;;;;;;;13.50;9.27;;;24.10;99.90;;;;;;5021698;28;20048;-78
2022/06/07 04:33:24;;;;;;;16.30;8.88;;;24.30;99.90;;;;;;5029026;28;20049;-77
2022/06/07 04:35:54;;;;;;;15.88;11.80;;;24.00;99.90;;;;;;5027478;28;20042;-78
2022/06/07 04:38:25;;;;;;;10.98;8.40;;;23.70;99.90;;;;;;5028935;28;20614;-78
2022/06/07 04:40:52;;;;;;;12.05;9.68;;;23.60;99.90;;;;;;5023408;28;20479;-78
2022/06/07 04:43:20;;;;;;;9.60;8.63;;;23.80;99.90;;;;;;5036269;28;20042;-78
2022/06/07 04:45:48;;;;;;;11.93;8.90;;;24.10;99.90;;;;;;5024165;28;20056;-78
2022/06/07 04:48:17;;;;;;;11.18;8.05;;;24.80;99.90;;;;;;5019661;28;20046;-78
2022/06/07 04:51:07;;;;;;;9.30;8.30;;;25.30;99.90;;;;;;5020775;28;20049;-79
2022/06/07 04:53:41;;;;;;;11.38;8.52;;;25.40;99.90;;;;;;5028854;28;20041;-78
2022/06/07 04:56:09;;;;;;;9.70;8.38;;;24.60;99.90;;;;;;5031092;28;20068;-78
2022/06/07 04:58:37;;;;;;;11.15;8.45;;;24.00;99.90;;;;;;5035018;28;20042;-78
2022/06/07 05:01:09;;;;;;;12.95;9.10;;;23.60;99.90;;;;;;5036139;28;20041;-78
2022/06/07 05:03:37;;;;;;;14.85;10.18;;;23.50;99.90;;;;;;5015355;28;20072;-77
2022/06/07 05:06:18;;;;;;;16.23;11.30;;;23.60;99.90;;;;;;5013854;28;20042;-78
2022/06/07 05:08:49;;;;;;;12.40;8.27;;;23.90;99.90;;;;;;5012528;28;20060;-77
2022/06/07 05:11:16;;;;;;;16.40;9.60;;;24.20;99.90;;;;;;5013439;28;20050;-77
2022/06/07 05:13:44;;;;;;;11.18;9.23;;;24.50;99.90;;;;;;5015234;28;20064;-77
2022/06/07 05:16:12;;;;;;;13.57;9.38;;;24.70;99.90;;;;;;5014307;28;20073;-77
2022/06/07 05:18:41;;;;;;;14.02;9.00;;;25.10;99.90;;;;;;5015350;28;20038;-77
2022/06/07 05:21:13;;;;;;;18.40;12.90;;;25.70;99.90;;;;;;5013405;28;20104;-77
2022/06/07 05:23:43;;;;;;;14.68;11.23;;;25.60;99.90;;;;;;5032699;28;20459;-78
2022/06/07 05:26:16;;;;;;;13.52;11.35;;;25.60;99.90;;;;;;5047638;28;20496;-78
2022/06/07 05:28:44;;;;;;;16.05;12.02;;;25.70;99.90;;;;;;5027297;28;20103;-78
2022/06/07 05:31:14;;;;;;;16.02;8.75;;;25.80;99.90;;;;;;5034054;28;20080;-78
2022/06/07 05:33:47;;;;;;;11.25;9.95;;;26.00;99.90;;;;;;5034289;28;20053;-78
2022/06/07 05:36:15;;;;;;;13.45;10.00;;;26.20;99.90;;;;;;5033378;28;20144;-78
2022/06/07 05:38:44;;;;;;;11.60;9.00;;;26.70;99.90;;;;;;5032413;28;20049;-79
2022/06/07 05:41:20;;;;;;;11.32;8.85;;;27.40;99.90;;;;;;5028417;28;20581;-78
2022/06/07 05:43:49;;;;;;;12.95;8.93;;;27.80;99.90;;;;;;5029465;28;20049;-78
2022/06/07 05:46:19;;;;;;;10.68;8.13;;;27.90;99.90;;;;;;5030279;28;20412;-79
2022/06/07 05:48:55;;;;;;;13.10;10.07;;;27.80;99.90;;;;;;5033218;28;20045;-79
2022/06/07 05:51:33;;;;;;;10.02;8.38;;;27.70;99.90;;;;;;5026020;28;20065;-78
2022/06/07 05:54:03;;;;;;;16.23;9.85;;;27.30;99.90;;;;;;5033142;28;20057;-78
2022/06/07 05:56:30;;;;;;;14.27;8.88;;;26.80;99.90;;;;;;5033909;28;20442;-79
2022/06/07 05:58:58;;;;;;;10.18;8.43;;;26.70;99.90;;;;;;5032704;28;20045;-79
2022/06/07 06:01:26;;;;;;;21.60;11.02;;;26.30;99.90;;;;;;5035194;28;20041;-80
2022/06/07 06:03:58;;;;;;;12.00;8.75;;;26.20;99.90;;;;;;5030219;28;20045;-79
2022/06/07 06:06:26;;;;;;;10.90;9.23;;;26.30;99.90;;;;;;5033737;28;20042;-79
2022/06/07 06:11:46;;;;;;;10.43;9.30;;;26.90;99.90;;;;;;5022745;28;20045;-79
2022/06/07 06:14:20;;;;;;;;;;;27.20;99.90;;;;;;5034106;28;20076;-79
2022/06/07 06:16:52;;;;;;;17.30;10.15;;;27.10;99.90;;;;;;5035426;28;20376;-80
2022/06/07 06:19:30;;;;;;;15.13;9.00;;;27.30;99.90;;;;;;5020610;28;20061;-80
2022/06/07 06:21:58;;;;;;;12.75;9.50;;;27.50;99.90;;;;;;5018068;28;20092;-78
2022/06/07 06:24:28;;;;;;;10.60;8.68;;;26.90;99.90;;;;;;5038726;28;20453;-78
2022/06/07 06:26:58;;;;;;;12.52;9.43;;;26.90;99.90;;;;;;5033821;28;20386;-80
2022/06/07 06:29:31;;;;;;;13.45;8.50;;;26.90;99.90;;;;;;5030134;28;20388;-80
2022/06/07 06:31:58;;;;;;;13.10;11.60;;;27.20;99.90;;;;;;5036605;28;20381;-79
2022/06/07 06:34:29;;;;;;;12.00;8.48;;;27.00;99.90;;;;;;5034242;28;20046;-79
2022/06/07 06:37:00;;;;;;;15.68;9.18;;;27.30;99.90;;;;;;5036454;28;20077;-81
2022/06/07 06:39:32;;;;;;;13.82;9.60;;;27.10;99.90;;;;;;5035168;28;20064;-80
2022/06/07 06:42:02;;;;;;;10.13;8.02;;;27.40;99.90;;;;;;5035858;28;20095;-79
2022/06/07 06:44:42;;;;;;;11.95;8.65;;;27.20;99.90;;;;;;5035441;28;20049;-78
2022/06/07 06:47:09;;;;;;;12.07;8.15;;;26.50;99.90;;;;;;5033983;28;20092;-78
2022/06/07 06:49:37;;;;;;;13.85;8.65;;;26.50;99.90;;;;;;5050343;28;20072;-78
2022/06/07 06:52:06;;;;;;;13.15;8.73;;;26.50;99.90;;;;;;5037006;28;20060;-80
2022/06/07 06:54:34;;;;;;;10.05;8.75;;;26.30;99.90;;;;;;5037885;28;20135;-79
2022/06/07 06:57:09;;;;;;;14.38;8.57;;;26.20;99.90;;;;;;5038167;28;20060;-79
2022/06/07 06:59:36;;;;;;;8.63;7.72;;;26.50;99.90;;;;;;5040914;28;20038;-79
2022/06/07 07:02:05;;;;;;;9.60;7.88;;;26.40;99.90;;;;;;5040686;28;20065;-79
2022/06/07 07:04:47;;;;;;;12.82;8.05;;;26.10;99.90;;;;;;5043306;28;20095;-79
2022/06/07 07:07:14;;;;;;;15.25;8.63;;;26.30;99.90;;;;;;5047017;28;20060;-78
2022/06/07 07:09:42;;;;;;;17.50;12.88;;;26.60;99.90;;;;;;5046997;28;20116;-79
2022/06/07 07:12:14;;;;;;;14.85;12.45;;;27.10;99.90;;;;;;5045874;28;20053;-80
2022/06/07 07:14:52;;;;;;;9.27;6.75;;;27.40;99.90;;;;;;5047655;28;20049;-78
2022/06/07 07:17:24;;;;;;;13.85;10.60;;;27.30;99.90;;;;;;5048242;28;20134;-78
2022/06/07 07:19:55;;;;;;;8.98;7.53;;;27.40;99.90;;;;;;5043774;28;20076;-79
2022/06/07 07:22:23;;;;;;;11.30;8.18;;;27.40;99.90;;;;;;5042650;28;20041;-80
2022/06/07 07:24:52;;;;;;;9.07;7.03;;;27.30;99.90;;;;;;5038970;28;20539;-80
2022/06/07 07:27:23;;;;;;;10.52;6.78;;;27.40;99.90;;;;;;5037976;28;20520;-80
2022/06/07 07:29:51;;;;;;;8.82;7.10;;;27.70;99.90;;;;;;5037685;28;20102;-79
2022/06/07 07:32:24;;;;;;;13.73;7.43;;;27.80;99.90;;;;;;5037651;28;20055;-80
2022/06/07 07:34:54;;;;;;;12.23;6.70;;;27.70;99.90;;;;;;5037974;28;20103;-80
2022/06/07 07:37:23;;;;;;;9.88;6.90;;;27.80;99.90;;;;;;5037898;28;20049;-79
2022/06/07 07:39:57;;;;;;;20.42;7.20;;;28.10;99.90;;;;;;5037720;28;20037;-79
2022/06/07 07:42:29;;;;;;;6.13;5.47;;;28.40;99.90;;;;;;5038433;28;20041;-79
2022/06/07 07:45:07;;;;;;;9.52;6.13;;;28.50;99.90;;;;;;5038107;28;20041;-79
2022/06/07 07:47:34;;;;;;;8.10;7.07;;;28.20;99.90;;;;;;5038249;28;20080;-79
2022/06/07 07:50:03;;;;;;;6.75;5.57;;;28.00;99.90;;;;;;5039156;28;20564;-78
2022/06/07 07:52:33;;;;;;;6.85;5.75;;;27.70;99.90;;;;;;5038604;28;20057;-79
2022/06/07 07:55:07;;;;;;;7.38;5.45;;;27.40;99.90;;;;;;5037427;28;20068;-80
2022/06/07 07:57:36;;;;;;;9.30;5.78;;;27.40;99.90;;;;;;5037829;28;20053;-79
2022/06/07 08:00:06;;;;;;;11.57;7.53;;;27.40;99.90;;;;;;5043830;28;20092;-78
2022/06/07 08:02:40;;;;;;;10.52;7.28;;;27.40;99.90;;;;;;5047572;28;20053;-79
2022/06/07 08:05:20;;;;;;;9.63;5.90;;;27.40;99.90;;;;;;5037069;28;20116;-80
2022/06/07 08:07:48;;;;;;;8.48;6.97;;;27.00;99.90;;;;;;5036886;28;20132;-80
2022/06/07 08:10:16;;;;;;;7.80;5.20;;;27.20;99.90;;;;;;5037753;28;20121;-79
2022/06/07 08:12:45;;;;;;;10.65;5.90;;;27.20;99.90;;;;;;5037403;28;20416;-80
2022/06/07 08:15:13;;;;;;;10.38;5.60;;;26.90;99.90;;;;;;5053739;28;20060;-81
2022/06/07 08:17:40;;;;;;;6.70;4.90;;;26.90;99.90;;;;;;5040589;28;20069;-80
2022/06/07 08:20:09;;;;;;;9.00;5.00;;;27.00;99.90;;;;;;5040091;28;20045;-80
2022/06/07 08:22:39;;;;;;;10.45;5.65;;;27.20;99.90;;;;;;5038771;28;20103;-81
2022/06/07 08:25:10;;;;;;;9.25;5.47;;;27.30;99.90;;;;;;5041868;28;20053;-79
2022/06/07 08:27:37;;;;;;;8.10;6.40;;;27.60;99.90;;;;;;5044268;28;20045;-79
2022/06/07 08:30:11;;;;;;;7.95;5.97;;;27.70;99.90;;;;;;5043447;28;20072;-82
2022/06/07 08:32:42;;;;;;;8.18;5.80;;;27.60;99.90;;;;;;5039633;28;20039;-81
2022/06/07 08:37:59;;;;;;;8.13;5.68;;;27.10;99.90;;;;;;5040243;28;20045;-79
2022/06/07 08:40:33;;;;;;;7.80;5.82;;;27.00;99.90;;;;;;5039516;28;20065;-82
2022/06/07 08:43:06;;;;;;;8.30;5.70;;;27.20;99.90;;;;;;5038920;28;20053;-79
2022/06/07 08:45:39;;;;;;;8.32;5.93;;;27.20;99.90;;;;;;5037545;28;20117;-79
2022/06/07 08:48:13;;;;;;;8.88;6.63;;;27.50;99.90;;;;;;5040004;28;20037;-79
2022/06/07 08:50:44;;;;;;;7.30;5.88;;;27.70;99.90;;;;;;5039226;28;20041;-80
2022/06/07 08:53:17;;;;;;;6.38;5.10;;;28.10;99.90;;;;;;5040609;28;20060;-80
2022/06/07 08:55:48;;;;;;;8.32;5.65;;;27.90;99.90;;;;;;5055810;28;20056;-79
2022/06/07 08:58:19;;;;;;;9.68;7.50;;;28.20;99.90;;;;;;5039217;28;20053;-81
2022/06/07 09:00:50;;;;;;;9.18;6.15;;;28.60;99.90;;;;;;5039951;28;20496;-79
2022/06/07 09:03:39;;;;;;;9.18;5.68;;;28.60;99.90;;;;;;5039117;28;20053;-80
2022/06/07 09:06:16;;;;;;;13.30;8.15;;;29.10;99.90;;;;;;5040389;28;20041;-80
2022/06/07 09:08:47;;;;;;;9.60;6.45;;;29.70;99.90;;;;;;5038661;28;20069;-80
2022/06/07 09:14:07;;;;;;;12.02;6.32;;;29.40;99.90;;;;;;5038750;28;20056;-80
2022/06/07 09:16:43;;;;;;;9.38;5.72;;;28.60;99.90;;;;;;5041016;28;20488;-80
2022/06/07 09:19:11;;;;;;;;;;;28.30;99.90;;;;;;5039093;28;20474;-80
2022/06/07 09:21:41;;;;;;;7.47;5.13;;;27.90;99.90;;;;;;5038778;28;19963;-79
2022/06/07 09:24:13;;;;;;;7.57;4.75;;;27.80;99.90;;;;;;5041920;28;20084;-79
2022/06/07 09:26:43;;;;;;;6.43;4.85;;;28.20;99.90;;;;;;5043958;28;20386;-79
2022/06/07 09:29:16;;;;;;;7.18;5.07;;;28.50;99.90;;;;;;5041358;28;20555;-79
2022/06/07 09:31:46;;;;;;;10.93;5.63;;;28.60;99.90;;;;;;5037349;28;20125;-79
2022/06/07 09:34:25;;;;;;;7.30;6.60;;;29.10;99.90;;;;;;5040539;28;20404;-78
2022/06/07 09:36:59;;;;;;;7.15;5.40;;;29.00;99.90;;;;;;5034057;28;20040;-78
2022/06/07 09:39:29;;;;;;;7.88;5.60;;;29.00;99.90;;;;;;5036117;28;20049;-77
2022/06/07 09:42:17;;;;;;;6.10;5.05;;;28.10;99.90;;;;;;5025029;28;20046;-80
2022/06/07 09:44:58;;;;;;;14.80;5.30;;;27.50;99.90;;;;;;5042498;28;20500;-78
2022/06/07 09:47:32;;;;;;;8.27;5.68;;;27.50;99.90;;;;;;5042242;28;20045;-81
2022/06/07 09:50:13;;;;;;;5.73;5.07;;;27.80;99.90;;;;;;5047727;28;20097;-82
2022/06/07 09:52:45;;;;;;;5.75;5.22;;;27.70;99.90;;;;;;5027512;28;20095;-78
2022/06/07 09:55:33;;;;;;;6.03;5.32;;;27.40;99.90;;;;;;5024912;28;20046;-83
2022/06/07 09:58:14;;;;;;;5.28;4.78;;;27.60;99.90;;;;;;5021899;28;20057;-80
2022/06/07 10:00:48;;;;;;;6.30;5.35;;;27.70;99.90;;;;;;5020117;28;20084;-78
2022/06/07 10:03:34;;;;;;;7.80;5.22;;;27.80;99.90;;;;;;5021127;28;20038;-80
2022/06/07 10:06:12;;;;;;;8.38;6.00;;;27.70;99.90;;;;;;5024641;28;20052;-80
2022/06/07 10:08:55;;;;;;;10.00;5.78;;;27.90;99.90;;;;;;5040736;28;20041;-80
2022/06/07 10:11:29;;;;;;;9.27;6.07;;;28.00;99.90;;;;;;5041728;28;20064;-80
2022/06/07 10:14:17;;;;;;;8.40;6.18;;;27.70;99.90;;;;;;5037014;28;20045;-80
2022/06/07 10:16:51;;;;;;;11.82;7.65;;;27.70;99.90;;;;;;5021549;28;20046;-79
2022/06/07 10:19:35;;;;;;;7.03;6.23;;;27.70;99.90;;;;;;5027764;28;20412;-80
2022/06/07 10:22:26;;;;;;;7.93;5.78;;;27.70;99.90;;;;;;5041550;28;20038;-80
2022/06/07 10:25:04;;;;;;;7.78;5.82;;;27.70;99.90;;;;;;5037172;28;20064;-80
2022/06/07 10:27:37;;;;;;;7.80;5.93;;;27.90;99.90;;;;;;5036353;28;20049;-81
2022/06/07 10:30:22;;;;;;;9.07;5.70;;;28.30;99.90;;;;;;5029460;28;20041;-80
2022/06/07 10:33:12;;;;;;;7.55;5.53;;;28.60;99.90;;;;;;5030378;28;20042;-78
2022/06/07 10:35:49;;;;;;;8.25;5.85;;;28.40;99.90;;;;;;5034976;28;20046;-79
2022/06/07 10:38:33;;;;;;;9.48;6.57;;;28.00;99.90;;;;;;5029037;28;20046;-81
2022/06/07 10:41:10;;;;;;;8.90;7.53;;;27.70;99.90;;;;;;5034799;28;20477;-80
2022/06/07 10:43:51;;;;;;;8.90;7.68;;;27.90;99.90;;;;;;5025714;28;20069;-81
2022/06/07 10:46:20;;;;;;;10.38;7.85;;;28.20;99.90;;;;;;5025539;28;20084;-82
2022/06/07 10:48:55;;;;;;;10.65;9.48;;;28.30;99.90;;;;;;5024796;28;20069;-79
2022/06/07 10:54:16;;;;;;;14.68;8.90;;;28.40;99.90;;;;;;5025356;28;20073;-80
2022/06/07 10:56:51;;;;;;;8.63;7.75;;;28.70;99.90;;;;;;5027029;28;20137;-82
2022/06/07 10:59:21;;;;;;;10.60;8.77;;;28.90;99.90;;;;;;5027118;28;20053;-80
2022/06/07 11:01:54;;;;;;;9.85;8.13;;;28.90;99.90;;;;;;5036785;28;20041;-81
2022/06/07 11:10:25;;;;;;;12.05;8.80;;;28.50;99.90;;;;;;5008232;28;20177;-83
2022/06/07 11:12:58;;;;;;;13.80;9.57;;;28.70;99.90;;;;;;5004308;28;20066;-82
2022/06/07 11:15:33;;;;;;;11.35;9.63;;;28.60;99.90;;;;;;5016779;28;20057;-82
2022/06/07 11:18:07;;;;;;;10.20;9.13;;;28.50;99.90;;;;;;5045434;28;20041;-83
2022/06/07 11:20:37;;;;;;;10.18;8.60;;;28.70;99.90;;;;;;5044961;28;20052;-84
2022/06/07 11:23:15;;;;;;;13.32;9.68;;;28.90;99.90;;;;;;5039841;28;20050;-79
2022/06/07 11:25:57;;;;;;;10.63;8.00;;;29.40;99.90;;;;;;5030641;28;20065;-80
2022/06/07 11:28:27;;;;;;;13.25;8.93;;;29.70;99.90;;;;;;5025250;28;20042;-79
2022/06/07 11:31:02;;;;;;;14.07;10.40;;;29.80;99.90;;;;;;5034760;28;20034;-79
2022/06/07 11:33:43;;;;;;;11.63;9.90;;;29.90;99.90;;;;;;5039322;28;20053;-79
2022/06/07 11:36:33;;;;;;;10.98;9.57;;;30.10;99.90;;;;;;5034776;28;20046;-80
2022/06/07 11:39:27;;;;;;;10.55;9.45;;;29.80;99.90;;;;;;5026539;28;20058;-80
2022/06/07 11:41:56;;;;;;;13.07;9.52;;;29.70;99.90;;;;;;5019697;28;20454;-79
2022/06/07 11:44:38;;;;;;;14.30;10.25;;;29.10;99.90;;;;;;5026663;28;20069;-79
2022/06/07 11:47:31;;;;;;;13.35;10.50;;;28.90;91.00;;;;;;5026482;28;20056;-79
2022/06/07 11:50:27;;;;;;;13.82;9.80;;;28.80;92.40;;;;;;5017021;28;20049;-79
2022/06/07 11:52:58;;;;;;;13.57;11.13;;;29.00;90.90;;;;;;5026148;28;20038;-79
2022/06/07 11:55:39;;;;;;;11.23;10.00;;;28.90;91.00;;;;;;5029391;28;20042;-79
2022/06/07 11:58:08;;;;;;;12.73;10.05;;;28.80;91.40;;;;;;5023694;28;20072;-80
2022/06/07 12:00:49;;;;;;;13.43;9.02;;;28.70;91.90;;;;;;5024707;28;20042;-81
2022/06/07 12:03:33;;;;;;;11.00;9.15;;;28.80;92.40;;;;;;5024387;28;20042;-80
2022/06/07 12:06:23;;;;;;;14.88;11.40;;;28.80;92.70;;;;;;5027177;28;20045;-81
2022/06/07 12:08:58;;;;;;;14.63;11.68;;;28.80;92.80;;;;;;5045108;28;20076;-81
2022/06/07 12:11:32;;;;;;;11.60;10.40;;;28.90;92.40;;;;;;5042764;28;20073;-82
2022/06/07 12:14:20;;;;;;;9.73;8.73;;;28.90;92.90;;;;;;5047725;28;20409;-82
2022/06/07 12:16:56;;;;;;;14.57;12.00;;;29.00;92.60;;;;;;5038775;28;20060;-81
2022/06/07 12:19:25;;;;;;;11.27;9.35;;;29.10;92.80;;;;;;5031651;28;20050;-81
2022/06/07 12:21:57;;;;;;;14.60;10.27;;;29.30;92.60;;;;;;5031857;28;20052;-80
2022/06/07 12:24:25;;;;;;;10.45;9.40;;;29.30;92.50;;;;;;5031918;28;20061;-81
2022/06/07 12:26:54;;;;;;;10.02;9.02;;;29.60;92.20;;;;;;5040365;28;20053;-81
2022/06/07 12:29:24;;;;;;;14.15;9.80;;;29.50;92.00;;;;;;5041385;28;20050;-80
2022/06/07 12:31:55;;;;;;;11.65;10.00;;;29.60;91.90;;;;;;5040652;28;20046;-81
2022/06/07 12:34:25;;;;;;;14.00;10.27;;;29.20;92.10;;;;;;5043329;28;20049;-81
2022/06/07 12:36:57;;;;;;;13.23;10.18;;;29.20;91.80;;;;;;5051700;28;20164;-81
2022/06/07 12:39:25;;;;;;;14.90;11.15;;;29.00;91.90;;;;;;5038341;28;20045;-81
2022/06/07 12:41:59;;;;;;;15.20;9.73;;;29.20;92.30;;;;;;5050193;28;20069;-81
2022/06/07 12:44:29;;;;;;;13.35;9.82;;;29.10;92.40;;;;;;5041234;28;20042;-81
2022/06/07 12:46:58;;;;;;;10.68;9.68;;;29.10;92.30;;;;;;5031793;28;20056;-81
2022/06/07 12:49:27;;;;;;;11.55;10.35;;;28.70;93.00;;;;;;5065947;28;20061;-81
2022/06/07 12:52:00;;;;;;;13.68;9.98;;;28.40;93.30;;;;;;5072170;28;20045;-81
2022/06/07 12:54:33;;;;;;;14.70;10.35;;;28.20;93.60;;;;;;5050391;28;20489;-78
2022/06/07 12:57:05;;;;;;;12.85;9.85;;;28.30;93.80;;;;;;5031378;28;20125;-83
2022/06/07 12:59:36;;;;;;;10.07;9.10;;;28.30;93.40;;;;;;5027534;28;20060;-81
2022/06/07 13:02:14;;;;;;;13.05;9.68;;;28.10;94.10;;;;;;5040588;28;20053;-80
2022/06/07 13:04:47;;;;;;;11.00;9.73;;;28.30;95.00;;;;;;5037392;28;20048;-79
2022/06/07 13:07:23;;;;;;;11.40;9.98;;;28.40;94.20;;;;;;5041722;28;20045;-79
2022/06/07 13:09:54;;;;;;;11.02;9.63;;;28.50;93.90;;;;;;5044322;28;20060;-81
2022/06/07 13:12:28;;;;;;;12.30;10.82;;;28.30;94.10;;;;;;5039653;28;20070;-78
2022/06/07 13:14:56;;;;;;;11.38;9.98;;;28.40;94.40;;;;;;5044972;28;20072;-80
2022/06/07 13:17:33;;;;;;;13.43;10.80;;;28.60;94.20;;;;;;5045744;28;20075;-80
2022/06/07 13:20:02;;;;;;;13.18;10.02;;;28.70;94.20;;;;;;5044980;28;20045;-80
2022/06/07 13:22:32;;;;;;;12.20;10.25;;;28.80;93.70;;;;;;5048198;28;20049;-78
2022/06/07 13:25:17;;;;;;;11.05;9.88;;;28.80;93.30;;;;;;5046517;28;20053;-79